Aérodrome :
LOGIN :

S'inscrire | Disclaimer

   EN    FR    IT 

 










Légende :    VFR   VFR Marginal   IFR   IFR Intensif   IFR Très Intensif
Visi : 
Plafond : 
>= 8 km
>= 3000ft
5 à 8 km
1000 à 3000 ft
1500m à 5 km
500 à 1000 ft
800 à 1500m
200 à 500 ft
< 800m
< 200 ft
Symboles :   Orages  Brouillard  Fortes neiges  Fortes précipitations  Vent > 20 kt
SIGMETs :   Divers  Orages  Givrage  Turbulence  Onde Orograph.  Cendres Volcan.






- Altitude de l'aérodrome : 1017 ft


LFSL - Brive Souillac

DERNIER METAR :
  • 131400Z AUTO 22006KT 170V320 9999 BKN024/// BKN031/// BKN037/// ///CB 24/18 Q1016 BECMG BKN035

METARs EXPIRÉS :
  • 131330Z AUTO 21006KT 160V300 9999 BKN023 BKN029 BKN036 23/18 Q1017 NOSIG
  • 131300Z AUTO 19007KT 140V250 9999 BKN019 BKN024 BKN030 22/18 Q1017 NOSIG
  • 131230Z AUTO 18006KT 150V220 9999 SCT016 BKN022 BKN028 22/18 Q1017 NOSIG
  • 131200Z AUTO 18007KT 150V230 9999 SCT013 BKN022 OVC090 21/18 Q1017 NOSIG
  • 131130Z AUTO 19005KT 150V220 9999 BKN013 OVC020 21/18 Q1017 BECMG BKN035

TAF TAF LFSL
Valide du 13 à 12h jusqu'au 13 à 21h UTC


131100Z 1312/1321 25008KT 9999 BKN013
BECMG 1312/1313 BKN035



MET'MAP, la Météo Aéronautique d'un coup d'oeil ! - Copyright ORBIFLY Décembre 2007 - Disclaimer

ORBIFLY MET'MAP TEAM :

Programmation & Développement : Alexandra Zaïnal
Sur une idée originale de : Baudouin d'Aumeries
Assistance à la programmation : Marc-Olivier Méhu
Soutien technique & logistique : Manuel Goepfert

Contact : metmap@orbifly.com




SOURCES & CREDITS :

   NOAA